createdAt,value
2019-03-12T00:01:06.828Z,2.56
2019-03-12T00:06:06.183Z,2.58
2019-03-12T00:11:07.067Z,2.56
2019-03-12T00:16:06.342Z,2.56
2019-03-12T00:21:06.681Z,2.56
2019-03-12T00:26:07.092Z,2.54
2019-03-12T00:31:06.194Z,2.52
2019-03-12T00:36:06.504Z,2.5
2019-03-12T00:41:06.353Z,2.47
2019-03-12T00:46:06.286Z,2.41
2019-03-12T00:51:06.626Z,2.39
2019-03-12T00:56:07.086Z,2.42
2019-03-12T01:00:08.490Z,2.41
2019-03-12T01:05:06.893Z,2.37
2019-03-12T01:10:06.673Z,2.34
2019-03-12T01:15:08.433Z,2.4
2019-03-12T01:20:07.074Z,2.43
2019-03-12T01:25:06.556Z,2.46
2019-03-12T01:29:08.033Z,2.4
2019-03-12T01:34:07.286Z,2.42
2019-03-12T01:39:08.037Z,2.47
2019-03-12T01:44:07.389Z,2.51
2019-03-12T01:49:07.706Z,2.51
2019-03-12T01:54:07.142Z,2.54
2019-03-12T01:59:07.585Z,2.47
2019-03-12T02:04:10.519Z,2.42
2019-03-12T02:09:07.271Z,2.38
2019-03-12T02:13:08.921Z,2.28
2019-03-12T02:19:06.924Z,2.2
2019-03-12T02:24:06.303Z,2.17
2019-03-12T02:28:07.161Z,2.29
2019-03-12T02:33:07.449Z,2.31
2019-03-12T02:38:06.849Z,2.35
2019-03-12T02:43:07.795Z,2.32
2019-03-12T02:48:06.858Z,2.16
2019-03-12T02:53:07.168Z,2.07
2019-03-12T02:58:07.681Z,2.06
2019-03-12T03:02:07.123Z,1.92
2019-03-12T03:07:07.555Z,1.73
2019-03-12T03:12:07.300Z,1.64
2019-03-12T03:17:07.275Z,1.43
2019-03-12T03:22:07.707Z,1.43
2019-03-12T03:27:07.080Z,1.48
2019-03-12T03:32:06.770Z,1.67
2019-03-12T03:37:06.980Z,1.85
2019-03-12T03:41:07.369Z,1.93
2019-03-12T03:42:07.193Z,1.93
2019-03-12T03:46:06.147Z,2.01
2019-03-12T03:51:06.579Z,2.19
2019-03-12T03:56:06.912Z,2.27
2019-03-12T04:01:06.764Z,2.28
2019-03-12T04:06:06.707Z,2.29
2019-03-12T04:11:07.161Z,2.29
2019-03-12T04:15:09.029Z,2.36
2019-03-12T04:16:06.405Z,2.36
2019-03-12T04:20:07.229Z,2.4
2019-03-12T04:25:06.526Z,2.5
2019-03-12T04:30:08.748Z,2.56
2019-03-12T04:35:06.788Z,2.35
2019-03-12T04:40:07.577Z,2.1
2019-03-12T04:45:08.241Z,1.81
2019-03-12T04:49:07.647Z,1.6
2019-03-12T04:54:07.790Z,1.4
2019-03-12T04:59:06.460Z,0.96
2019-03-12T05:04:07.283Z,0.69
2019-03-12T05:09:07.170Z,0.61
2019-03-12T05:14:06.666Z,0.59
2019-03-12T05:19:06.641Z,0.53
2019-03-12T05:24:06.669Z,0.78
2019-03-12T05:29:07.109Z,1.02
2019-03-12T05:34:06.567Z,1.14
2019-03-12T05:39:07.278Z,1.25
2019-03-12T05:43:07.774Z,1.64
2019-03-12T05:48:06.775Z,1.87
2019-03-12T05:53:06.258Z,1.73
2019-03-12T05:58:06.616Z,1.68
2019-03-12T06:03:06.429Z,1.78
2019-03-12T06:08:06.772Z,1.86
2019-03-12T06:13:06.691Z,2.11
2019-03-12T06:17:07.305Z,2.47
2019-03-12T06:18:06.430Z,2.47
2019-03-12T06:22:06.836Z,3.39
2019-03-12T06:27:07.268Z,2.94
2019-03-12T06:32:07.452Z,2.91
2019-03-12T06:37:06.799Z,2.91
2019-03-12T06:42:08.405Z,2.96
2019-03-12T06:47:06.516Z,3.04
2019-03-12T06:52:06.819Z,3.41
2019-03-12T06:57:07.065Z,3.86
2019-03-12T07:02:06.494Z,3.59
2019-03-12T07:07:12.721Z,3.59
2019-03-12T07:11:06.603Z,3.99
2019-03-12T07:16:07.436Z,3.52
2019-03-12T07:21:06.795Z,3.71
2019-03-12T07:26:07.213Z,3.71
2019-03-12T07:31:07.383Z,4.02
2019-03-12T07:36:06.880Z,3.74
2019-03-12T07:41:06.842Z,3.98
2019-03-12T07:45:08.463Z,5.87
2019-03-12T07:46:06.602Z,5.87
2019-03-12T07:50:06.543Z,5.05
2019-03-12T07:55:06.778Z,4.79
2019-03-12T08:00:10.572Z,4.77
2019-03-12T08:05:06.752Z,4.69
2019-03-12T08:10:06.883Z,4.72
2019-03-12T08:15:08.746Z,4.87
2019-03-12T08:20:10.402Z,5.74
2019-03-12T08:25:06.923Z,5.48
2019-03-12T08:30:08.588Z,5.21
2019-03-12T08:35:06.673Z,5.39
2019-03-12T08:39:07.519Z,5.49
2019-03-12T08:44:06.953Z,5.7
2019-03-12T08:49:06.461Z,6.45
2019-03-12T08:54:06.871Z,5.94
2019-03-12T08:59:06.184Z,5.93
2019-03-12T09:04:07.026Z,6.25
2019-03-12T09:09:07.769Z,6.05
2019-03-12T09:14:07.107Z,6.11
2019-03-12T09:18:07.032Z,6.84
2019-03-12T09:19:06.506Z,6.84
2019-03-12T09:23:06.516Z,8.07
2019-03-12T09:28:06.802Z,8.33
2019-03-12T09:33:06.828Z,9.18
2019-03-12T09:38:07.109Z,7.56
2019-03-12T09:43:06.991Z,8.47
2019-03-12T09:48:06.866Z,7.9
2019-03-12T09:53:06.375Z,8.06
2019-03-12T09:57:07.153Z,9.67
2019-03-12T09:58:07.104Z,9.67
2019-03-12T10:02:06.947Z,10.93
2019-03-12T10:07:07.369Z,10.69
2019-03-12T10:12:07.249Z,10.23
2019-03-12T10:17:07.335Z,10.21
2019-03-12T10:22:06.892Z,8.62
2019-03-12T10:27:07.396Z,9.4
2019-03-12T10:32:07.301Z,9.37
2019-03-12T10:37:16.284Z,9.77
2019-03-12T10:42:07.444Z,9.01
2019-03-12T10:46:07.407Z,9.66
2019-03-12T10:47:06.629Z,9.66
2019-03-12T10:51:07.203Z,10.11
2019-03-12T10:56:06.722Z,9.9
2019-03-12T11:01:07.337Z,9.6
2019-03-12T11:06:06.810Z,10.26
2019-03-12T11:11:06.705Z,9.62
2019-03-12T11:16:07.499Z,9.94
2019-03-12T11:20:07.826Z,9.23
2019-03-12T11:21:07.056Z,9.23
2019-03-12T11:25:07.551Z,9.38
2019-03-12T11:30:08.608Z,9.04
2019-03-12T11:35:06.890Z,11.01
2019-03-12T11:40:06.692Z,9.85
2019-03-12T11:45:18.314Z,9.83
2019-03-12T11:50:06.600Z,9.83
2019-03-12T11:55:07.055Z,9.34
2019-03-12T12:00:08.055Z,9.5
2019-03-12T12:05:07.294Z,7.94
2019-03-12T12:09:07.917Z,9.78
2019-03-12T12:14:06.669Z,8.87
2019-03-12T12:19:07.385Z,10.18
2019-03-12T12:24:06.411Z,9.5
2019-03-12T12:29:07.043Z,9.9
2019-03-12T12:34:07.260Z,9.17
2019-03-12T12:39:06.622Z,10.09
2019-03-12T12:43:06.923Z,9.37
2019-03-12T12:48:06.704Z,9.35
2019-03-12T12:53:07.295Z,10.22
2019-03-12T12:58:06.371Z,9.78
2019-03-12T13:03:06.842Z,9.05
2019-03-12T13:08:06.446Z,9.16
2019-03-12T13:13:07.072Z,9.32
2019-03-12T13:18:06.458Z,9.81
2019-03-12T13:23:07.053Z,10.12
2019-03-12T13:28:07.398Z,9.52
2019-03-12T13:33:06.706Z,9.11
2019-03-12T13:37:06.810Z,9.16
2019-03-12T13:42:06.576Z,8.96
2019-03-12T13:47:06.583Z,9.06
2019-03-12T13:52:06.921Z,9.3
2019-03-12T13:57:06.794Z,9.41
2019-03-12T14:02:06.659Z,9.03
2019-03-12T14:07:06.957Z,8.97
2019-03-12T14:12:06.797Z,8.73
2019-03-12T14:16:06.934Z,8.67
2019-03-12T14:17:08.849Z,8.67
2019-03-12T14:21:06.909Z,8.7
2019-03-12T14:26:06.168Z,8.63
2019-03-12T14:31:06.330Z,8.61
2019-03-12T14:36:07.085Z,8.55
2019-03-12T14:41:07.213Z,8.61
2019-03-12T14:46:06.815Z,8.45
2019-03-12T14:51:06.287Z,8.49
2019-03-12T14:56:06.699Z,8.82
2019-03-12T15:01:06.788Z,9.57
2019-03-12T15:05:06.796Z,9.01
2019-03-12T15:10:06.730Z,8.72
2019-03-12T15:15:08.317Z,8.82
2019-03-12T15:20:06.246Z,9
2019-03-12T15:25:06.617Z,9.31
2019-03-12T15:30:08.176Z,9.27
2019-03-12T15:35:07.093Z,8.92
2019-03-12T15:39:07.259Z,8.63
2019-03-12T15:44:06.605Z,8.38
2019-03-12T15:49:07.453Z,8.22
2019-03-12T15:54:06.584Z,7.91
2019-03-12T15:59:07.199Z,7.74
2019-03-12T16:04:06.378Z,7.71
2019-03-12T16:08:07.399Z,7.54
2019-03-12T16:13:08.331Z,7.62
2019-03-12T16:18:06.925Z,7.64
2019-03-12T16:23:06.683Z,7.65
2019-03-12T16:28:07.081Z,7.63
2019-03-12T16:33:07.270Z,7.49
2019-03-12T16:38:07.485Z,7.43
2019-03-12T16:43:07.235Z,7.38
2019-03-12T16:48:07.398Z,7.27
2019-03-12T16:52:07.335Z,7.19
2019-03-12T16:53:06.685Z,7.19
2019-03-12T16:57:07.091Z,7.19
2019-03-12T17:02:06.609Z,7.19
2019-03-12T17:07:06.438Z,7.03
2019-03-12T17:12:06.987Z,7.09
2019-03-12T17:17:07.368Z,7.27
2019-03-12T17:22:06.537Z,7.14
2019-03-12T17:27:06.863Z,6.93
2019-03-12T17:32:07.050Z,6.88
2019-03-12T17:37:07.307Z,6.73
2019-03-12T17:42:07.096Z,6.56
2019-03-12T17:46:06.860Z,6.66
2019-03-12T17:51:06.910Z,6.65
2019-03-12T17:56:07.268Z,6.6
2019-03-12T18:01:06.279Z,6.51
2019-03-12T18:06:06.642Z,6.6
2019-03-12T18:11:06.950Z,6.55
2019-03-12T18:15:08.224Z,6.34
2019-03-12T18:20:07.429Z,6.34
2019-03-12T18:25:07.941Z,6.41
2019-03-12T18:30:08.984Z,6.37
2019-03-12T18:35:07.406Z,6.39
2019-03-12T18:40:07.372Z,6.46
2019-03-12T18:45:07.641Z,6.51
2019-03-12T18:49:06.981Z,6.38
2019-03-12T18:50:06.517Z,6.38
2019-03-12T18:55:06.970Z,6.22
2019-03-12T18:59:06.976Z,6.3
2019-03-12T19:04:06.799Z,6.16
2019-03-12T19:09:07.675Z,6.08
2019-03-12T19:14:07.107Z,5.95
2019-03-12T19:19:06.430Z,5.81
2019-03-12T19:24:06.762Z,5.77
2019-03-12T19:29:07.200Z,5.67
2019-03-12T19:34:06.599Z,5.55
2019-03-12T19:38:06.994Z,5.51
2019-03-12T19:43:06.647Z,5.52
2019-03-12T19:48:06.627Z,5.56
2019-03-12T19:53:07.151Z,5.7
2019-03-12T19:58:06.562Z,6.02
2019-03-12T20:03:15.466Z,5.94
2019-03-12T20:08:07.034Z,5.94
2019-03-12T20:13:06.986Z,6.06
2019-03-12T20:18:06.762Z,6.08
2019-03-12T20:22:07.814Z,6.05
2019-03-12T20:23:06.372Z,6.05
2019-03-12T20:27:07.103Z,6
2019-03-12T20:32:07.083Z,5.94
2019-03-12T20:37:06.496Z,5.7
2019-03-12T20:42:07.047Z,5.93
2019-03-12T20:47:06.400Z,6.25
2019-03-12T20:52:07.208Z,6.31
2019-03-12T20:57:06.634Z,6.33
2019-03-12T21:02:06.849Z,6.24
2019-03-12T21:07:06.934Z,6.09
2019-03-12T21:11:07.190Z,5.93
2019-03-12T21:16:06.653Z,5.81
2019-03-12T21:21:07.120Z,5.7
2019-03-12T21:26:07.572Z,5.62
2019-03-12T21:31:06.331Z,5.57
2019-03-12T21:36:08.180Z,5.74
2019-03-12T21:41:06.860Z,5.93
2019-03-12T21:45:09.017Z,6.11
2019-03-12T21:46:06.224Z,6.11
2019-03-12T21:50:06.894Z,6.05
2019-03-12T21:55:07.493Z,5.93
2019-03-12T22:00:09.129Z,6.04
2019-03-12T22:05:06.943Z,6.08
2019-03-12T22:10:06.717Z,6.08
2019-03-12T22:15:08.386Z,6.17
2019-03-12T22:20:07.098Z,6.15
2019-03-12T22:25:06.554Z,6.25
2019-03-12T22:30:08.456Z,6.3
2019-03-12T22:35:06.616Z,6.21
2019-03-12T22:39:07.044Z,6.3
2019-03-12T22:44:06.638Z,6.25
2019-03-12T22:49:06.870Z,6.74
2019-03-12T22:54:07.294Z,7.17
2019-03-12T22:59:06.656Z,7.27
2019-03-12T23:04:07.017Z,7.53
2019-03-12T23:09:06.579Z,7.69
2019-03-12T23:14:07.466Z,7.67
2019-03-12T23:18:06.872Z,7.7
2019-03-12T23:23:07.296Z,7.73
2019-03-12T23:28:06.736Z,7.75
2019-03-12T23:33:06.895Z,7.93
2019-03-12T23:38:07.394Z,7.87
2019-03-12T23:43:07.042Z,7.92
2019-03-12T23:48:07.274Z,7.98
2019-03-12T23:53:06.659Z,7.9
2019-03-12T23:58:07.026Z,8.04
